sensor_id;sensor_type;location;lat;lon;timestamp;P1;durP1;ratioP1;P2;durP2;ratioP2
68942;SDS011;60852;52.190;4.422;2024-01-06T00:00:58;9.12;;;9.04;;
68942;SDS011;60852;52.190;4.422;2024-01-06T00:03:23;9.17;;;9.05;;
68942;SDS011;60852;52.190;4.422;2024-01-06T00:05:48;9.37;;;9.37;;
68942;SDS011;60852;52.190;4.422;2024-01-06T00:08:14;8.90;;;8.89;;
68942;SDS011;60852;52.190;4.422;2024-01-06T00:10:39;8.98;;;8.88;;
68942;SDS011;60852;52.190;4.422;2024-01-06T00:13:05;8.70;;;8.67;;
68942;SDS011;60852;52.190;4.422;2024-01-06T00:15:30;8.29;;;8.27;;
68942;SDS011;60852;52.190;4.422;2024-01-06T00:17:55;8.68;;;8.64;;
68942;SDS011;60852;52.190;4.422;2024-01-06T00:20:21;8.27;;;8.17;;
68942;SDS011;60852;52.190;4.422;2024-01-06T00:22:46;7.42;;;7.40;;
68942;SDS011;60852;52.190;4.422;2024-01-06T00:25:12;6.73;;;6.73;;
68942;SDS011;60852;52.190;4.422;2024-01-06T00:27:37;6.82;;;6.82;;
68942;SDS011;60852;52.190;4.422;2024-01-06T00:30:03;6.39;;;6.39;;
68942;SDS011;60852;52.190;4.422;2024-01-06T00:32:30;5.88;;;5.88;;
68942;SDS011;60852;52.190;4.422;2024-01-06T00:34:55;5.78;;;5.78;;
68942;SDS011;60852;52.190;4.422;2024-01-06T00:37:20;5.96;;;5.96;;
68942;SDS011;60852;52.190;4.422;2024-01-06T00:39:46;5.67;;;5.67;;
68942;SDS011;60852;52.190;4.422;2024-01-06T00:42:11;6.05;;;6.01;;
68942;SDS011;60852;52.190;4.422;2024-01-06T00:44:37;5.48;;;5.40;;
68942;SDS011;60852;52.190;4.422;2024-01-06T00:47:02;5.64;;;5.63;;
68942;SDS011;60852;52.190;4.422;2024-01-06T00:49:28;5.55;;;5.55;;
68942;SDS011;60852;52.190;4.422;2024-01-06T00:51:53;6.02;;;6.02;;
68942;SDS011;60852;52.190;4.422;2024-01-06T00:54:19;5.61;;;5.59;;
68942;SDS011;60852;52.190;4.422;2024-01-06T00:56:44;5.36;;;5.33;;
68942;SDS011;60852;52.190;4.422;2024-01-06T00:59:10;5.27;;;5.27;;
68942;SDS011;60852;52.190;4.422;2024-01-06T01:01:35;4.74;;;4.74;;
68942;SDS011;60852;52.190;4.422;2024-01-06T01:04:00;4.17;;;4.17;;
68942;SDS011;60852;52.190;4.422;2024-01-06T01:06:26;3.66;;;3.66;;
68942;SDS011;60852;52.190;4.422;2024-01-06T01:08:52;3.90;;;3.90;;
68942;SDS011;60852;52.190;4.422;2024-01-06T01:11:18;3.60;;;3.60;;
68942;SDS011;60852;52.190;4.422;2024-01-06T01:13:44;3.63;;;3.63;;
68942;SDS011;60852;52.190;4.422;2024-01-06T01:16:10;3.34;;;3.33;;
68942;SDS011;60852;52.190;4.422;2024-01-06T01:18:35;3.36;;;3.36;;
68942;SDS011;60852;52.190;4.422;2024-01-06T01:21:00;3.34;;;3.34;;
68942;SDS011;60852;52.190;4.422;2024-01-06T01:23:26;3.05;;;3.04;;
68942;SDS011;60852;52.190;4.422;2024-01-06T01:25:51;2.73;;;2.73;;
68942;SDS011;60852;52.190;4.422;2024-01-06T01:28:17;2.30;;;2.30;;
68942;SDS011;60852;52.190;4.422;2024-01-06T01:30:42;2.25;;;2.25;;
68942;SDS011;60852;52.190;4.422;2024-01-06T01:33:08;2.28;;;2.26;;
68942;SDS011;60852;52.190;4.422;2024-01-06T01:35:33;2.05;;;2.05;;
68942;SDS011;60852;52.190;4.422;2024-01-06T01:37:59;2.43;;;2.43;;
68942;SDS011;60852;52.190;4.422;2024-01-06T01:40:24;2.50;;;2.50;;
68942;SDS011;60852;52.190;4.422;2024-01-06T01:42:49;2.35;;;2.35;;
68942;SDS011;60852;52.190;4.422;2024-01-06T01:45:15;1.96;;;1.96;;
68942;SDS011;60852;52.190;4.422;2024-01-06T01:47:40;2.17;;;2.17;;
68942;SDS011;60852;52.190;4.422;2024-01-06T01:50:06;2.24;;;2.24;;
68942;SDS011;60852;52.190;4.422;2024-01-06T01:52:34;2.56;;;2.56;;
68942;SDS011;60852;52.190;4.422;2024-01-06T01:55:01;2.69;;;2.69;;
68942;SDS011;60852;52.190;4.422;2024-01-06T01:57:27;3.03;;;3.03;;
68942;SDS011;60852;52.190;4.422;2024-01-06T01:59:53;3.18;;;3.18;;
68942;SDS011;60852;52.190;4.422;2024-01-06T02:02:20;3.22;;;3.22;;
68942;SDS011;60852;52.190;4.422;2024-01-06T02:04:47;3.34;;;3.34;;
68942;SDS011;60852;52.190;4.422;2024-01-06T02:07:13;3.66;;;3.66;;
68942;SDS011;60852;52.190;4.422;2024-01-06T02:09:39;4.01;;;4.01;;
68942;SDS011;60852;52.190;4.422;2024-01-06T02:12:04;4.01;;;4.01;;
68942;SDS011;60852;52.190;4.422;2024-01-06T02:14:30;3.88;;;3.88;;
68942;SDS011;60852;52.190;4.422;2024-01-06T02:16:57;4.01;;;4.01;;
68942;SDS011;60852;52.190;4.422;2024-01-06T02:19:23;4.09;;;4.09;;
68942;SDS011;60852;52.190;4.422;2024-01-06T02:21:52;4.05;;;4.05;;
68942;SDS011;60852;52.190;4.422;2024-01-06T02:24:19;4.05;;;4.05;;
68942;SDS011;60852;52.190;4.422;2024-01-06T02:26:45;4.22;;;4.22;;
68942;SDS011;60852;52.190;4.422;2024-01-06T02:29:10;4.48;;;4.48;;
68942;SDS011;60852;52.190;4.422;2024-01-06T02:31:36;4.37;;;4.37;;
68942;SDS011;60852;52.190;4.422;2024-01-06T02:34:01;4.90;;;4.90;;
68942;SDS011;60852;52.190;4.422;2024-01-06T02:36:26;5.24;;;5.24;;
68942;SDS011;60852;52.190;4.422;2024-01-06T02:38:52;5.14;;;5.14;;
68942;SDS011;60852;52.190;4.422;2024-01-06T02:41:17;5.40;;;5.40;;
68942;SDS011;60852;52.190;4.422;2024-01-06T02:43:43;5.58;;;5.58;;
68942;SDS011;60852;52.190;4.422;2024-01-06T02:46:08;5.37;;;5.37;;
68942;SDS011;60852;52.190;4.422;2024-01-06T02:48:33;5.72;;;5.72;;
68942;SDS011;60852;52.190;4.422;2024-01-06T02:50:59;5.11;;;5.11;;
68942;SDS011;60852;52.190;4.422;2024-01-06T02:53:24;5.39;;;5.39;;
68942;SDS011;60852;52.190;4.422;2024-01-06T02:55:50;6.02;;;6.02;;
68942;SDS011;60852;52.190;4.422;2024-01-06T02:58:15;6.27;;;6.27;;
68942;SDS011;60852;52.190;4.422;2024-01-06T03:00:41;6.36;;;6.36;;
68942;SDS011;60852;52.190;4.422;2024-01-06T03:03:06;6.60;;;6.60;;
68942;SDS011;60852;52.190;4.422;2024-01-06T03:05:32;6.85;;;6.85;;
68942;SDS011;60852;52.190;4.422;2024-01-06T03:07:57;6.61;;;6.61;;
68942;SDS011;60852;52.190;4.422;2024-01-06T03:10:22;6.64;;;6.64;;
68942;SDS011;60852;52.190;4.422;2024-01-06T03:12:48;6.05;;;6.05;;
68942;SDS011;60852;52.190;4.422;2024-01-06T03:15:14;5.02;;;5.02;;
68942;SDS011;60852;52.190;4.422;2024-01-06T03:17:39;4.33;;;4.33;;
68942;SDS011;60852;52.190;4.422;2024-01-06T03:20:05;3.99;;;3.99;;
68942;SDS011;60852;52.190;4.422;2024-01-06T03:22:31;3.65;;;3.65;;
68942;SDS011;60852;52.190;4.422;2024-01-06T03:24:56;4.03;;;4.03;;
68942;SDS011;60852;52.190;4.422;2024-01-06T03:27:22;4.29;;;4.29;;
68942;SDS011;60852;52.190;4.422;2024-01-06T03:29:47;4.72;;;4.72;;
68942;SDS011;60852;52.190;4.422;2024-01-06T03:32:13;4.57;;;4.57;;
68942;SDS011;60852;52.190;4.422;2024-01-06T03:34:40;4.94;;;4.94;;
68942;SDS011;60852;52.190;4.422;2024-01-06T03:37:06;5.39;;;5.39;;
68942;SDS011;60852;52.190;4.422;2024-01-06T03:39:31;4.93;;;4.93;;
68942;SDS011;60852;52.190;4.422;2024-01-06T03:41:57;5.25;;;5.25;;
68942;SDS011;60852;52.190;4.422;2024-01-06T03:44:22;5.32;;;5.32;;
68942;SDS011;60852;52.190;4.422;2024-01-06T03:46:48;5.11;;;5.11;;
68942;SDS011;60852;52.190;4.422;2024-01-06T03:49:13;4.99;;;4.99;;
68942;SDS011;60852;52.190;4.422;2024-01-06T03:51:39;4.71;;;4.71;;
68942;SDS011;60852;52.190;4.422;2024-01-06T03:54:04;4.81;;;4.81;;
68942;SDS011;60852;52.190;4.422;2024-01-06T03:56:29;4.51;;;4.51;;
68942;SDS011;60852;52.190;4.422;2024-01-06T03:58:55;4.78;;;4.78;;
68942;SDS011;60852;52.190;4.422;2024-01-06T04:01:20;4.77;;;4.77;;
68942;SDS011;60852;52.190;4.422;2024-01-06T04:03:46;4.38;;;4.38;;
68942;SDS011;60852;52.190;4.422;2024-01-06T04:06:12;4.61;;;4.61;;
68942;SDS011;60852;52.190;4.422;2024-01-06T04:11:04;4.80;;;4.80;;
68942;SDS011;60852;52.190;4.422;2024-01-06T04:13:29;4.80;;;4.80;;
68942;SDS011;60852;52.190;4.422;2024-01-06T04:15:55;4.85;;;4.85;;
68942;SDS011;60852;52.190;4.422;2024-01-06T04:18:20;4.86;;;4.86;;
68942;SDS011;60852;52.190;4.422;2024-01-06T04:20:46;4.24;;;4.24;;
68942;SDS011;60852;52.190;4.422;2024-01-06T04:23:11;4.86;;;4.86;;
68942;SDS011;60852;52.190;4.422;2024-01-06T04:25:37;5.05;;;5.05;;
68942;SDS011;60852;52.190;4.422;2024-01-06T04:28:02;5.29;;;5.29;;
68942;SDS011;60852;52.190;4.422;2024-01-06T04:30:28;5.75;;;5.75;;
68942;SDS011;60852;52.190;4.422;2024-01-06T04:32:53;6.23;;;6.23;;
68942;SDS011;60852;52.190;4.422;2024-01-06T04:35:19;6.79;;;6.79;;
68942;SDS011;60852;52.190;4.422;2024-01-06T04:37:45;6.32;;;6.32;;
68942;SDS011;60852;52.190;4.422;2024-01-06T04:40:11;5.88;;;5.88;;
68942;SDS011;60852;52.190;4.422;2024-01-06T04:42:36;5.90;;;5.90;;
68942;SDS011;60852;52.190;4.422;2024-01-06T04:45:05;5.50;;;5.50;;
68942;SDS011;60852;52.190;4.422;2024-01-06T04:47:31;5.22;;;5.22;;
68942;SDS011;60852;52.190;4.422;2024-01-06T04:49:56;5.22;;;5.22;;
68942;SDS011;60852;52.190;4.422;2024-01-06T04:52:22;5.14;;;5.14;;
68942;SDS011;60852;52.190;4.422;2024-01-06T04:54:48;4.77;;;4.77;;
68942;SDS011;60852;52.190;4.422;2024-01-06T04:57:13;4.83;;;4.83;;
68942;SDS011;60852;52.190;4.422;2024-01-06T04:59:39;4.83;;;4.83;;
68942;SDS011;60852;52.190;4.422;2024-01-06T05:02:05;4.44;;;4.44;;
68942;SDS011;60852;52.190;4.422;2024-01-06T05:04:31;4.58;;;4.58;;
68942;SDS011;60852;52.190;4.422;2024-01-06T05:06:58;4.29;;;4.29;;
68942;SDS011;60852;52.190;4.422;2024-01-06T05:09:24;4.28;;;4.28;;
68942;SDS011;60852;52.190;4.422;2024-01-06T05:11:50;4.04;;;4.04;;
68942;SDS011;60852;52.190;4.422;2024-01-06T05:14:16;4.25;;;4.25;;
68942;SDS011;60852;52.190;4.422;2024-01-06T05:16:41;4.34;;;4.34;;
68942;SDS011;60852;52.190;4.422;2024-01-06T05:19:07;4.84;;;4.84;;
68942;SDS011;60852;52.190;4.422;2024-01-06T05:21:33;4.85;;;4.85;;
68942;SDS011;60852;52.190;4.422;2024-01-06T05:24:00;4.67;;;4.67;;
68942;SDS011;60852;52.190;4.422;2024-01-06T05:26:25;4.49;;;4.49;;
68942;SDS011;60852;52.190;4.422;2024-01-06T05:28:51;4.34;;;4.34;;
68942;SDS011;60852;52.190;4.422;2024-01-06T05:31:17;4.38;;;4.38;;
68942;SDS011;60852;52.190;4.422;2024-01-06T05:33:43;4.04;;;4.04;;
68942;SDS011;60852;52.190;4.422;2024-01-06T05:36:08;3.61;;;3.61;;
68942;SDS011;60852;52.190;4.422;2024-01-06T05:38:34;3.77;;;3.77;;
68942;SDS011;60852;52.190;4.422;2024-01-06T05:40:59;3.60;;;3.60;;
68942;SDS011;60852;52.190;4.422;2024-01-06T05:43:25;3.42;;;3.42;;
68942;SDS011;60852;52.190;4.422;2024-01-06T05:45:50;3.51;;;3.51;;
68942;SDS011;60852;52.190;4.422;2024-01-06T05:48:16;3.50;;;3.50;;
68942;SDS011;60852;52.190;4.422;2024-01-06T05:50:42;3.32;;;3.32;;
68942;SDS011;60852;52.190;4.422;2024-01-06T05:53:07;3.78;;;3.78;;
68942;SDS011;60852;52.190;4.422;2024-01-06T05:55:33;4.14;;;4.14;;
68942;SDS011;60852;52.190;4.422;2024-01-06T05:57:59;3.76;;;3.76;;
68942;SDS011;60852;52.190;4.422;2024-01-06T06:00:24;3.97;;;3.97;;
68942;SDS011;60852;52.190;4.422;2024-01-06T06:02:50;4.30;;;4.30;;
68942;SDS011;60852;52.190;4.422;2024-01-06T06:05:15;4.61;;;4.61;;
68942;SDS011;60852;52.190;4.422;2024-01-06T06:07:41;4.24;;;4.24;;
68942;SDS011;60852;52.190;4.422;2024-01-06T06:10:08;4.42;;;4.40;;
68942;SDS011;60852;52.190;4.422;2024-01-06T06:12:35;4.86;;;4.86;;
68942;SDS011;60852;52.190;4.422;2024-01-06T06:15:02;4.81;;;4.81;;
68942;SDS011;60852;52.190;4.422;2024-01-06T06:17:31;4.57;;;4.57;;
68942;SDS011;60852;52.190;4.422;2024-01-06T06:19:57;4.35;;;4.35;;
68942;SDS011;60852;52.190;4.422;2024-01-06T06:22:24;4.59;;;4.59;;
68942;SDS011;60852;52.190;4.422;2024-01-06T06:24:51;4.85;;;4.85;;
68942;SDS011;60852;52.190;4.422;2024-01-06T06:27:17;5.23;;;5.23;;
68942;SDS011;60852;52.190;4.422;2024-01-06T06:29:43;5.23;;;5.23;;
68942;SDS011;60852;52.190;4.422;2024-01-06T06:32:08;5.33;;;5.33;;
68942;SDS011;60852;52.190;4.422;2024-01-06T06:34:34;5.22;;;5.22;;
68942;SDS011;60852;52.190;4.422;2024-01-06T06:36:59;4.97;;;4.97;;
68942;SDS011;60852;52.190;4.422;2024-01-06T06:39:24;5.13;;;5.13;;
68942;SDS011;60852;52.190;4.422;2024-01-06T06:41:52;5.32;;;5.32;;
68942;SDS011;60852;52.190;4.422;2024-01-06T06:44:17;5.88;;;5.88;;
68942;SDS011;60852;52.190;4.422;2024-01-06T06:46:43;6.00;;;6.00;;
68942;SDS011;60852;52.190;4.422;2024-01-06T06:49:08;6.27;;;6.27;;
68942;SDS011;60852;52.190;4.422;2024-01-06T06:51:33;6.25;;;6.25;;
68942;SDS011;60852;52.190;4.422;2024-01-06T06:53:59;6.65;;;6.65;;
68942;SDS011;60852;52.190;4.422;2024-01-06T06:56:24;6.05;;;6.05;;
68942;SDS011;60852;52.190;4.422;2024-01-06T06:58:50;5.48;;;5.48;;
68942;SDS011;60852;52.190;4.422;2024-01-06T07:01:15;5.37;;;5.37;;
68942;SDS011;60852;52.190;4.422;2024-01-06T07:03:41;4.99;;;4.99;;
68942;SDS011;60852;52.190;4.422;2024-01-06T07:06:07;4.83;;;4.83;;
68942;SDS011;60852;52.190;4.422;2024-01-06T07:08:32;4.41;;;4.41;;
68942;SDS011;60852;52.190;4.422;2024-01-06T07:10:58;4.20;;;4.20;;
68942;SDS011;60852;52.190;4.422;2024-01-06T07:13:23;3.93;;;3.93;;
68942;SDS011;60852;52.190;4.422;2024-01-06T07:15:48;3.76;;;3.76;;
68942;SDS011;60852;52.190;4.422;2024-01-06T07:18:14;3.72;;;3.72;;
68942;SDS011;60852;52.190;4.422;2024-01-06T07:20:39;3.77;;;3.77;;
68942;SDS011;60852;52.190;4.422;2024-01-06T07:23:05;3.44;;;3.44;;
68942;SDS011;60852;52.190;4.422;2024-01-06T07:25:30;3.52;;;3.52;;
68942;SDS011;60852;52.190;4.422;2024-01-06T07:27:55;3.48;;;3.48;;
68942;SDS011;60852;52.190;4.422;2024-01-06T07:30:21;3.44;;;3.44;;
68942;SDS011;60852;52.190;4.422;2024-01-06T07:32:47;3.60;;;3.60;;
68942;SDS011;60852;52.190;4.422;2024-01-06T07:35:14;3.87;;;3.87;;
68942;SDS011;60852;52.190;4.422;2024-01-06T07:37:41;3.91;;;3.91;;
68942;SDS011;60852;52.190;4.422;2024-01-06T07:40:06;4.13;;;4.13;;
68942;SDS011;60852;52.190;4.422;2024-01-06T07:42:32;4.63;;;4.63;;
68942;SDS011;60852;52.190;4.422;2024-01-06T07:44:57;3.98;;;3.98;;
68942;SDS011;60852;52.190;4.422;2024-01-06T07:47:23;3.74;;;3.74;;
68942;SDS011;60852;52.190;4.422;2024-01-06T07:49:49;3.26;;;3.26;;
68942;SDS011;60852;52.190;4.422;2024-01-06T07:52:15;3.35;;;3.35;;
68942;SDS011;60852;52.190;4.422;2024-01-06T07:54:40;4.72;;;4.72;;
68942;SDS011;60852;52.190;4.422;2024-01-06T07:57:06;4.42;;;4.42;;
68942;SDS011;60852;52.190;4.422;2024-01-06T07:59:31;3.96;;;3.96;;
68942;SDS011;60852;52.190;4.422;2024-01-06T08:01:56;3.71;;;3.71;;
68942;SDS011;60852;52.190;4.422;2024-01-06T08:04:22;3.86;;;3.85;;
68942;SDS011;60852;52.190;4.422;2024-01-06T08:06:47;4.22;;;4.22;;
68942;SDS011;60852;52.190;4.422;2024-01-06T08:09:13;3.87;;;3.87;;
68942;SDS011;60852;52.190;4.422;2024-01-06T08:11:38;3.89;;;3.89;;
68942;SDS011;60852;52.190;4.422;2024-01-06T08:14:04;4.04;;;4.04;;
68942;SDS011;60852;52.190;4.422;2024-01-06T08:16:29;3.70;;;3.70;;
68942;SDS011;60852;52.190;4.422;2024-01-06T08:18:55;4.03;;;4.03;;
68942;SDS011;60852;52.190;4.422;2024-01-06T08:21:20;4.62;;;4.62;;
68942;SDS011;60852;52.190;4.422;2024-01-06T08:23:45;4.86;;;4.86;;
68942;SDS011;60852;52.190;4.422;2024-01-06T08:26:11;5.60;;;5.60;;
68942;SDS011;60852;52.190;4.422;2024-01-06T08:28:36;5.97;;;5.97;;
68942;SDS011;60852;52.190;4.422;2024-01-06T08:31:02;6.05;;;6.05;;
68942;SDS011;60852;52.190;4.422;2024-01-06T08:33:28;6.49;;;6.49;;
68942;SDS011;60852;52.190;4.422;2024-01-06T08:35:53;6.60;;;6.59;;
68942;SDS011;60852;52.190;4.422;2024-01-06T08:38:19;6.65;;;6.65;;
68942;SDS011;60852;52.190;4.422;2024-01-06T08:40:47;6.79;;;6.79;;
68942;SDS011;60852;52.190;4.422;2024-01-06T08:43:15;6.86;;;6.86;;
68942;SDS011;60852;52.190;4.422;2024-01-06T08:45:40;7.08;;;7.08;;
68942;SDS011;60852;52.190;4.422;2024-01-06T08:48:06;7.16;;;7.16;;
68942;SDS011;60852;52.190;4.422;2024-01-06T08:50:31;7.56;;;7.54;;
68942;SDS011;60852;52.190;4.422;2024-01-06T08:52:57;6.96;;;6.96;;
68942;SDS011;60852;52.190;4.422;2024-01-06T08:55:22;7.76;;;7.75;;
68942;SDS011;60852;52.190;4.422;2024-01-06T08:57:48;7.31;;;7.31;;
68942;SDS011;60852;52.190;4.422;2024-01-06T09:00:13;6.23;;;6.23;;
68942;SDS011;60852;52.190;4.422;2024-01-06T09:02:39;5.63;;;5.63;;
68942;SDS011;60852;52.190;4.422;2024-01-06T09:05:04;5.66;;;5.66;;
68942;SDS011;60852;52.190;4.422;2024-01-06T09:07:30;5.62;;;5.62;;
68942;SDS011;60852;52.190;4.422;2024-01-06T09:09:55;4.90;;;4.90;;
68942;SDS011;60852;52.190;4.422;2024-01-06T09:12:21;4.97;;;4.97;;
68942;SDS011;60852;52.190;4.422;2024-01-06T09:14:46;4.96;;;4.96;;
68942;SDS011;60852;52.190;4.422;2024-01-06T09:17:13;4.62;;;4.62;;
68942;SDS011;60852;52.190;4.422;2024-01-06T09:19:38;4.30;;;4.30;;
68942;SDS011;60852;52.190;4.422;2024-01-06T09:22:04;4.05;;;4.05;;
68942;SDS011;60852;52.190;4.422;2024-01-06T09:24:29;3.95;;;3.95;;
68942;SDS011;60852;52.190;4.422;2024-01-06T09:26:55;4.03;;;4.03;;
68942;SDS011;60852;52.190;4.422;2024-01-06T09:29:20;3.79;;;3.79;;
68942;SDS011;60852;52.190;4.422;2024-01-06T09:31:46;3.80;;;3.80;;
68942;SDS011;60852;52.190;4.422;2024-01-06T09:34:11;4.96;;;4.95;;
68942;SDS011;60852;52.190;4.422;2024-01-06T09:36:37;5.08;;;5.08;;
68942;SDS011;60852;52.190;4.422;2024-01-06T09:39:03;4.93;;;4.93;;
68942;SDS011;60852;52.190;4.422;2024-01-06T09:41:29;4.47;;;4.47;;
68942;SDS011;60852;52.190;4.422;2024-01-06T09:43:56;3.88;;;3.87;;
68942;SDS011;60852;52.190;4.422;2024-01-06T09:46:26;4.18;;;4.17;;
68942;SDS011;60852;52.190;4.422;2024-01-06T09:48:54;4.31;;;4.29;;
68942;SDS011;60852;52.190;4.422;2024-01-06T09:51:22;4.28;;;4.28;;
68942;SDS011;60852;52.190;4.422;2024-01-06T09:53:49;4.64;;;4.64;;
68942;SDS011;60852;52.190;4.422;2024-01-06T09:56:23;4.51;;;4.51;;
68942;SDS011;60852;52.190;4.422;2024-01-06T09:58:50;4.78;;;4.78;;
68942;SDS011;60852;52.190;4.422;2024-01-06T10:01:17;4.41;;;4.41;;
68942;SDS011;60852;52.190;4.422;2024-01-06T10:03:43;4.39;;;4.39;;
68942;SDS011;60852;52.190;4.422;2024-01-06T10:06:11;4.88;;;4.88;;
68942;SDS011;60852;52.190;4.422;2024-01-06T10:08:36;5.94;;;5.94;;
68942;SDS011;60852;52.190;4.422;2024-01-06T10:11:05;6.22;;;6.22;;
68942;SDS011;60852;52.190;4.422;2024-01-06T10:13:33;6.26;;;6.26;;
68942;SDS011;60852;52.190;4.422;2024-01-06T10:15:58;6.17;;;6.16;;
68942;SDS011;60852;52.190;4.422;2024-01-06T10:18:24;6.16;;;6.08;;
68942;SDS011;60852;52.190;4.422;2024-01-06T10:20:52;5.80;;;5.80;;
68942;SDS011;60852;52.190;4.422;2024-01-06T10:23:18;6.51;;;6.49;;
68942;SDS011;60852;52.190;4.422;2024-01-06T10:25:43;6.05;;;6.02;;
68942;SDS011;60852;52.190;4.422;2024-01-06T10:28:12;6.35;;;6.33;;
68942;SDS011;60852;52.190;4.422;2024-01-06T10:30:40;6.49;;;6.47;;
68942;SDS011;60852;52.190;4.422;2024-01-06T10:33:12;7.80;;;7.79;;
68942;SDS011;60852;52.190;4.422;2024-01-06T10:35:39;7.50;;;7.49;;
68942;SDS011;60852;52.190;4.422;2024-01-06T10:38:05;7.70;;;7.70;;
68942;SDS011;60852;52.190;4.422;2024-01-06T10:40:32;8.28;;;8.28;;
68942;SDS011;60852;52.190;4.422;2024-01-06T10:42:59;8.36;;;8.33;;
68942;SDS011;60852;52.190;4.422;2024-01-06T10:45:25;8.39;;;8.35;;
68942;SDS011;60852;52.190;4.422;2024-01-06T10:47:53;7.62;;;7.62;;
68942;SDS011;60852;52.190;4.422;2024-01-06T10:50:20;8.54;;;8.54;;
68942;SDS011;60852;52.190;4.422;2024-01-06T10:52:47;8.71;;;8.71;;
68942;SDS011;60852;52.190;4.422;2024-01-06T10:55:14;8.68;;;8.68;;
68942;SDS011;60852;52.190;4.422;2024-01-06T10:57:45;7.89;;;7.88;;
68942;SDS011;60852;52.190;4.422;2024-01-06T11:00:11;7.15;;;7.15;;
68942;SDS011;60852;52.190;4.422;2024-01-06T11:02:38;7.69;;;7.69;;
68942;SDS011;60852;52.190;4.422;2024-01-06T11:05:04;8.33;;;8.33;;
68942;SDS011;60852;52.190;4.422;2024-01-06T11:07:34;7.62;;;7.62;;
68942;SDS011;60852;52.190;4.422;2024-01-06T11:12:41;6.94;;;6.94;;
68942;SDS011;60852;52.190;4.422;2024-01-06T11:15:07;6.75;;;6.75;;
68942;SDS011;60852;52.190;4.422;2024-01-06T11:17:51;6.19;;;6.19;;
68942;SDS011;60852;52.190;4.422;2024-01-06T11:20:19;6.76;;;6.76;;
68942;SDS011;60852;52.190;4.422;2024-01-06T11:22:48;5.94;;;5.94;;
68942;SDS011;60852;52.190;4.422;2024-01-06T11:25:16;6.31;;;6.31;;
68942;SDS011;60852;52.190;4.422;2024-01-06T11:27:44;5.57;;;5.57;;
68942;SDS011;60852;52.190;4.422;2024-01-06T11:30:20;5.42;;;5.42;;
68942;SDS011;60852;52.190;4.422;2024-01-06T11:32:50;5.72;;;5.72;;
68942;SDS011;60852;52.190;4.422;2024-01-06T11:35:18;5.09;;;5.09;;
68942;SDS011;60852;52.190;4.422;2024-01-06T11:43:04;4.34;;;4.34;;
68942;SDS011;60852;52.190;4.422;2024-01-06T11:45:35;4.82;;;4.82;;
68942;SDS011;60852;52.190;4.422;2024-01-06T11:48:02;4.54;;;4.52;;
68942;SDS011;60852;52.190;4.422;2024-01-06T11:50:31;4.15;;;4.13;;
68942;SDS011;60852;52.190;4.422;2024-01-06T11:52:58;4.49;;;4.48;;
68942;SDS011;60852;52.190;4.422;2024-01-06T11:55:25;3.95;;;3.95;;
68942;SDS011;60852;52.190;4.422;2024-01-06T11:57:54;3.52;;;3.52;;
68942;SDS011;60852;52.190;4.422;2024-01-06T12:00:21;3.49;;;3.49;;
68942;SDS011;60852;52.190;4.422;2024-01-06T12:02:47;3.52;;;3.52;;
68942;SDS011;60852;52.190;4.422;2024-01-06T12:05:13;3.59;;;3.59;;
68942;SDS011;60852;52.190;4.422;2024-01-06T12:07:43;3.38;;;3.38;;
68942;SDS011;60852;52.190;4.422;2024-01-06T12:10:20;3.52;;;3.52;;
68942;SDS011;60852;52.190;4.422;2024-01-06T12:12:59;3.32;;;3.32;;
68942;SDS011;60852;52.190;4.422;2024-01-06T12:15:26;3.70;;;3.70;;
68942;SDS011;60852;52.190;4.422;2024-01-06T12:17:53;3.18;;;3.18;;
68942;SDS011;60852;52.190;4.422;2024-01-06T12:20:19;3.09;;;3.09;;
68942;SDS011;60852;52.190;4.422;2024-01-06T12:22:46;3.08;;;3.08;;
68942;SDS011;60852;52.190;4.422;2024-01-06T12:25:12;2.95;;;2.94;;
68942;SDS011;60852;52.190;4.422;2024-01-06T12:27:43;3.24;;;3.24;;
68942;SDS011;60852;52.190;4.422;2024-01-06T12:30:13;3.15;;;3.15;;
68942;SDS011;60852;52.190;4.422;2024-01-06T12:32:42;3.39;;;3.39;;
68942;SDS011;60852;52.190;4.422;2024-01-06T12:35:09;2.70;;;2.70;;
68942;SDS011;60852;52.190;4.422;2024-01-06T12:37:35;3.59;;;3.58;;
68942;SDS011;60852;52.190;4.422;2024-01-06T12:40:01;3.68;;;3.68;;
68942;SDS011;60852;52.190;4.422;2024-01-06T12:42:27;3.12;;;3.12;;
68942;SDS011;60852;52.190;4.422;2024-01-06T12:44:52;2.72;;;2.71;;
68942;SDS011;60852;52.190;4.422;2024-01-06T12:47:18;3.12;;;3.11;;
68942;SDS011;60852;52.190;4.422;2024-01-06T12:49:44;3.08;;;3.06;;
68942;SDS011;60852;52.190;4.422;2024-01-06T12:52:09;2.91;;;2.89;;
68942;SDS011;60852;52.190;4.422;2024-01-06T12:54:35;3.34;;;3.31;;
68942;SDS011;60852;52.190;4.422;2024-01-06T12:57:00;3.61;;;3.60;;
68942;SDS011;60852;52.190;4.422;2024-01-06T12:59:26;4.17;;;4.15;;
68942;SDS011;60852;52.190;4.422;2024-01-06T13:01:51;4.37;;;4.33;;
68942;SDS011;60852;52.190;4.422;2024-01-06T13:04:16;3.42;;;3.40;;
68942;SDS011;60852;52.190;4.422;2024-01-06T13:06:42;3.46;;;3.46;;
68942;SDS011;60852;52.190;4.422;2024-01-06T13:09:08;2.82;;;2.81;;
68942;SDS011;60852;52.190;4.422;2024-01-06T13:11:35;2.76;;;2.76;;
68942;SDS011;60852;52.190;4.422;2024-01-06T13:14:01;3.11;;;3.11;;
68942;SDS011;60852;52.190;4.422;2024-01-06T13:16:27;3.14;;;3.13;;
68942;SDS011;60852;52.190;4.422;2024-01-06T13:18:52;2.89;;;2.89;;
68942;SDS011;60852;52.190;4.422;2024-01-06T13:21:17;2.95;;;2.95;;
68942;SDS011;60852;52.190;4.422;2024-01-06T13:23:43;3.63;;;3.63;;
68942;SDS011;60852;52.190;4.422;2024-01-06T13:26:08;3.30;;;3.30;;
68942;SDS011;60852;52.190;4.422;2024-01-06T13:28:34;3.25;;;3.25;;
68942;SDS011;60852;52.190;4.422;2024-01-06T13:31:00;3.39;;;3.39;;
68942;SDS011;60852;52.190;4.422;2024-01-06T13:33:25;3.61;;;3.61;;
68942;SDS011;60852;52.190;4.422;2024-01-06T13:35:51;3.72;;;3.72;;
68942;SDS011;60852;52.190;4.422;2024-01-06T13:38:16;4.04;;;4.04;;
68942;SDS011;60852;52.190;4.422;2024-01-06T13:40:42;4.28;;;4.25;;
68942;SDS011;60852;52.190;4.422;2024-01-06T13:43:07;3.82;;;3.79;;
68942;SDS011;60852;52.190;4.422;2024-01-06T13:45:40;3.59;;;3.59;;
68942;SDS011;60852;52.190;4.422;2024-01-06T13:48:07;3.68;;;3.68;;
68942;SDS011;60852;52.190;4.422;2024-01-06T13:50:32;3.94;;;3.94;;
68942;SDS011;60852;52.190;4.422;2024-01-06T13:52:58;4.74;;;4.74;;
68942;SDS011;60852;52.190;4.422;2024-01-06T13:55:23;5.34;;;5.34;;
68942;SDS011;60852;52.190;4.422;2024-01-06T13:57:49;6.33;;;6.32;;
68942;SDS011;60852;52.190;4.422;2024-01-06T14:00:14;5.41;;;5.35;;
68942;SDS011;60852;52.190;4.422;2024-01-06T14:02:43;5.61;;;5.58;;
68942;SDS011;60852;52.190;4.422;2024-01-06T14:05:12;5.25;;;5.24;;
68942;SDS011;60852;52.190;4.422;2024-01-06T14:07:38;4.48;;;4.42;;
68942;SDS011;60852;52.190;4.422;2024-01-06T14:10:05;3.87;;;3.85;;
68942;SDS011;60852;52.190;4.422;2024-01-06T14:12:31;5.04;;;5.00;;
68942;SDS011;60852;52.190;4.422;2024-01-06T14:14:57;4.98;;;4.96;;
68942;SDS011;60852;52.190;4.422;2024-01-06T14:17:23;5.25;;;5.25;;
68942;SDS011;60852;52.190;4.422;2024-01-06T14:19:49;4.39;;;4.33;;
68942;SDS011;60852;52.190;4.422;2024-01-06T14:22:14;4.15;;;4.09;;
68942;SDS011;60852;52.190;4.422;2024-01-06T14:24:40;3.57;;;3.57;;
68942;SDS011;60852;52.190;4.422;2024-01-06T14:27:05;3.87;;;3.86;;
68942;SDS011;60852;52.190;4.422;2024-01-06T14:29:31;3.34;;;3.33;;
68942;SDS011;60852;52.190;4.422;2024-01-06T14:31:56;3.17;;;3.15;;
68942;SDS011;60852;52.190;4.422;2024-01-06T14:34:23;3.14;;;3.14;;
68942;SDS011;60852;52.190;4.422;2024-01-06T14:36:50;4.00;;;4.00;;
68942;SDS011;60852;52.190;4.422;2024-01-06T14:39:15;5.30;;;5.28;;
68942;SDS011;60852;52.190;4.422;2024-01-06T14:41:41;4.67;;;4.62;;
68942;SDS011;60852;52.190;4.422;2024-01-06T14:44:07;4.52;;;4.50;;
68942;SDS011;60852;52.190;4.422;2024-01-06T14:46:33;3.93;;;3.93;;
68942;SDS011;60852;52.190;4.422;2024-01-06T14:49:01;4.20;;;4.20;;
68942;SDS011;60852;52.190;4.422;2024-01-06T14:51:28;4.19;;;4.18;;